sensor_id;sensor_type;location;lat;lon;timestamp;pressure;altitude;pressure_sealevel;temperature;humidity
20424;BME280;10371;49.042;8.002;2023-03-14T00:00:00;98167.69;;;10.84;100.00
20424;BME280;10371;49.042;8.002;2023-03-14T00:01:14;98166.88;;;10.84;100.00
20424;BME280;10371;49.042;8.002;2023-03-14T00:02:15;98165.91;;;10.85;100.00
20424;BME280;10371;49.042;8.002;2023-03-14T00:03:15;98154.16;;;10.89;100.00
20424;BME280;10371;49.042;8.002;2023-03-14T00:04:15;98157.41;;;10.91;100.00
20424;BME280;10371;49.042;8.002;2023-03-14T00:05:16;98155.97;;;10.88;100.00
20424;BME280;10371;49.042;8.002;2023-03-14T00:06:17;98158.56;;;10.88;100.00
20424;BME280;10371;49.042;8.002;2023-03-14T00:07:18;98151.72;;;10.95;100.00
20424;BME280;10371;49.042;8.002;2023-03-14T00:08:18;98157.25;;;10.92;100.00
20424;BME280;10371;49.042;8.002;2023-03-14T00:09:19;98147.19;;;10.89;100.00
20424;BME280;10371;49.042;8.002;2023-03-14T00:10:20;98151.22;;;10.92;100.00
20424;BME280;10371;49.042;8.002;2023-03-14T00:11:21;98153.81;;;11.00;100.00
20424;BME280;10371;49.042;8.002;2023-03-14T00:12:21;98156.25;;;11.02;100.00
20424;BME280;10371;49.042;8.002;2023-03-14T00:13:21;98152.84;;;11.01;100.00
20424;BME280;10371;49.042;8.002;2023-03-14T00:14:22;98157.06;;;11.02;100.00
20424;BME280;10371;49.042;8.002;2023-03-14T00:15:22;98161.31;;;11.03;100.00
20424;BME280;10371;49.042;8.002;2023-03-14T00:16:22;98158.06;;;11.01;100.00
20424;BME280;10371;49.042;8.002;2023-03-14T00:17:23;98143.72;;;10.97;100.00
20424;BME280;10371;49.042;8.002;2023-03-14T00:18:23;98142.25;;;11.03;100.00
20424;BME280;10371;49.042;8.002;2023-03-14T00:19:24;98132.66;;;11.03;100.00
20424;BME280;10371;49.042;8.002;2023-03-14T00:20:24;98137.53;;;11.06;100.00
20424;BME280;10371;49.042;8.002;2023-03-14T00:21:24;98134.59;;;11.09;100.00
20424;BME280;10371;49.042;8.002;2023-03-14T00:22:26;98131.19;;;11.09;100.00
20424;BME280;10371;49.042;8.002;2023-03-14T00:23:28;98138.16;;;11.08;100.00
20424;BME280;10371;49.042;8.002;2023-03-14T00:24:29;98135.06;;;11.13;100.00
20424;BME280;10371;49.042;8.002;2023-03-14T00:25:29;98137.66;;;11.13;100.00
20424;BME280;10371;49.042;8.002;2023-03-14T00:26:29;98138.66;;;11.12;100.00
20424;BME280;10371;49.042;8.002;2023-03-14T00:27:30;98142.41;;;11.09;100.00
20424;BME280;10371;49.042;8.002;2023-03-14T00:28:30;98137.50;;;11.14;100.00
20424;BME280;10371;49.042;8.002;2023-03-14T00:29:30;98133.25;;;11.13;100.00
20424;BME280;10371;49.042;8.002;2023-03-14T00:30:31;98138.66;;;11.12;100.00
20424;BME280;10371;49.042;8.002;2023-03-14T00:31:31;98136.16;;;11.18;100.00
20424;BME280;10371;49.042;8.002;2023-03-14T00:32:31;98134.56;;;11.17;100.00
20424;BME280;10371;49.042;8.002;2023-03-14T00:33:32;98141.72;;;11.15;100.00
20424;BME280;10371;49.042;8.002;2023-03-14T00:34:32;98141.38;;;11.18;100.00
20424;BME280;10371;49.042;8.002;2023-03-14T00:35:33;98151.13;;;11.25;100.00
20424;BME280;10371;49.042;8.002;2023-03-14T00:36:33;98144.75;;;11.27;100.00
20424;BME280;10371;49.042;8.002;2023-03-14T00:37:33;98151.13;;;11.25;100.00
20424;BME280;10371;49.042;8.002;2023-03-14T00:38:35;98143.94;;;11.27;100.00
20424;BME280;10371;49.042;8.002;2023-03-14T00:39:36;98159.25;;;11.30;100.00
20424;BME280;10371;49.042;8.002;2023-03-14T00:40:39;98159.59;;;11.27;100.00
20424;BME280;10371;49.042;8.002;2023-03-14T00:41:39;98154.84;;;11.30;100.00
20424;BME280;10371;49.042;8.002;2023-03-14T00:42:39;98152.38;;;11.37;100.00
20424;BME280;10371;49.042;8.002;2023-03-14T00:43:39;98158.22;;;11.39;100.00
20424;BME280;10371;49.042;8.002;2023-03-14T00:44:40;98166.00;;;11.47;100.00
20424;BME280;10371;49.042;8.002;2023-03-14T00:45:40;98167.63;;;11.48;100.00
20424;BME280;10371;49.042;8.002;2023-03-14T00:46:40;98169.13;;;11.43;100.00
20424;BME280;10371;49.042;8.002;2023-03-14T00:47:41;98166.69;;;11.41;100.00
20424;BME280;10371;49.042;8.002;2023-03-14T00:48:46;98166.03;;;11.39;100.00
20424;BME280;10371;49.042;8.002;2023-03-14T00:49:46;98173.84;;;11.39;100.00
20424;BME280;10371;49.042;8.002;2023-03-14T00:50:47;98166.38;;;11.36;100.00
20424;BME280;10371;49.042;8.002;2023-03-14T00:51:47;98161.34;;;11.34;100.00
20424;BME280;10371;49.042;8.002;2023-03-14T00:52:47;98162.97;;;11.35;100.00
20424;BME280;10371;49.042;8.002;2023-03-14T00:53:48;98171.44;;;11.37;100.00
20424;BME280;10371;49.042;8.002;2023-03-14T00:54:49;98171.44;;;11.37;100.00
20424;BME280;10371;49.042;8.002;2023-03-14T00:55:49;98166.03;;;11.39;100.00
20424;BME280;10371;49.042;8.002;2023-03-14T00:56:50;98169.31;;;11.33;100.00
20424;BME280;10371;49.042;8.002;2023-03-14T00:57:50;98165.25;;;11.30;100.00
20424;BME280;10371;49.042;8.002;2023-03-14T00:58:54;98166.59;;;11.26;100.00
20424;BME280;10371;49.042;8.002;2023-03-14T00:59:54;98171.28;;;11.31;100.00
20424;BME280;10371;49.042;8.002;2023-03-14T01:00:55;98171.97;;;11.25;100.00
20424;BME280;10371;49.042;8.002;2023-03-14T01:01:55;98165.91;;;11.32;100.00
20424;BME280;10371;49.042;8.002;2023-03-14T01:02:55;98171.28;;;11.31;100.00
20424;BME280;10371;49.042;8.002;2023-03-14T01:03:55;98163.28;;;11.40;100.00
20424;BME280;10371;49.042;8.002;2023-03-14T01:04:56;98159.56;;;11.35;100.00
20424;BME280;10371;49.042;8.002;2023-03-14T01:06:07;98153.88;;;11.31;100.00
20424;BME280;10371;49.042;8.002;2023-03-14T01:07:07;98160.22;;;11.29;100.00
20424;BME280;10371;49.042;8.002;2023-03-14T01:08:08;98157.66;;;11.21;100.00
20424;BME280;10371;49.042;8.002;2023-03-14T01:09:08;98151.81;;;11.18;100.00
20424;BME280;10371;49.042;8.002;2023-03-14T01:10:10;98158.16;;;11.16;100.00
20424;BME280;10371;49.042;8.002;2023-03-14T01:11:13;98153.59;;;11.18;100.00
20424;BME280;10371;49.042;8.002;2023-03-14T01:12:14;98153.75;;;11.16;100.00
20424;BME280;10371;49.042;8.002;2023-03-14T01:13:15;98156.53;;;11.15;100.00
20424;BME280;10371;49.042;8.002;2023-03-14T01:14:15;98159.28;;;11.22;100.00
20424;BME280;10371;49.042;8.002;2023-03-14T01:15:16;98157.13;;;11.25;100.00
20424;BME280;10371;49.042;8.002;2023-03-14T01:16:17;98158.28;;;11.23;100.00
20424;BME280;10371;49.042;8.002;2023-03-14T01:17:18;98152.75;;;11.26;100.00
20424;BME280;10371;49.042;8.002;2023-03-14T01:18:18;98153.88;;;11.31;100.00
20424;BME280;10371;49.042;8.002;2023-03-14T01:19:19;98154.72;;;11.24;100.00
20424;BME280;10371;49.042;8.002;2023-03-14T01:20:19;98162.03;;;11.28;100.00
20424;BME280;10371;49.042;8.002;2023-03-14T01:21:26;98148.81;;;11.30;100.00
20424;BME280;10371;49.042;8.002;2023-03-14T01:22:27;98153.06;;;11.23;100.00
20424;BME280;10371;49.042;8.002;2023-03-14T01:23:27;98152.75;;;11.26;100.00
20424;BME280;10371;49.042;8.002;2023-03-14T01:24:27;98146.81;;;11.09;100.00
20424;BME280;10371;49.042;8.002;2023-03-14T01:25:28;98144.34;;;11.07;100.00
20424;BME280;10371;49.042;8.002;2023-03-14T01:26:30;98131.38;;;10.99;100.00
20424;BME280;10371;49.042;8.002;2023-03-14T01:27:31;98137.69;;;11.05;100.00
20424;BME280;10371;49.042;8.002;2023-03-14T01:28:31;98131.66;;;11.04;100.00
20424;BME280;10371;49.042;8.002;2023-03-14T01:29:31;98131.19;;;11.09;100.00
20424;BME280;10371;49.042;8.002;2023-03-14T01:30:31;98136.19;;;11.10;100.00
20424;BME280;10371;49.042;8.002;2023-03-14T01:31:32;98134.28;;;11.04;100.00
20424;BME280;10371;49.042;8.002;2023-03-14T01:32:32;98126.97;;;11.00;100.00
20424;BME280;10371;49.042;8.002;2023-03-14T01:33:33;98116.19;;;11.03;100.00
20424;BME280;10371;49.042;8.002;2023-03-14T01:34:33;98115.41;;;11.02;100.00
20424;BME280;10371;49.042;8.002;2023-03-14T01:35:33;98115.09;;;10.97;100.00
20424;BME280;10371;49.042;8.002;2023-03-14T01:36:33;98112.81;;;10.94;100.00
20424;BME280;10371;49.042;8.002;2023-03-14T01:37:34;98119.34;;;10.98;100.00
20424;BME280;10371;49.042;8.002;2023-03-14T01:38:36;98112.66;;;10.95;100.00
20424;BME280;10371;49.042;8.002;2023-03-14T01:39:36;98106.47;;;10.96;100.00
20424;BME280;10371;49.042;8.002;2023-03-14T01:40:44;98105.19;;;10.92;100.00
20424;BME280;10371;49.042;8.002;2023-03-14T01:41:44;98113.63;;;10.94;100.00
20424;BME280;10371;49.042;8.002;2023-03-14T01:42:46;98102.88;;;10.98;100.00
20424;BME280;10371;49.042;8.002;2023-03-14T01:43:47;98102.41;;;10.94;100.00
20424;BME280;10371;49.042;8.002;2023-03-14T01:44:53;98099.16;;;10.92;100.00
20424;BME280;10371;49.042;8.002;2023-03-14T01:47:06;98100.78;;;10.93;100.00
20424;BME280;10371;49.042;8.002;2023-03-14T01:48:06;98092.81;;;10.94;100.00
20424;BME280;10371;49.042;8.002;2023-03-14T01:49:17;98104.34;;;10.92;100.00
20424;BME280;10371;49.042;8.002;2023-03-14T01:50:19;98106.00;;;10.93;100.00
20424;BME280;10371;49.042;8.002;2023-03-14T01:52:25;98107.28;;;10.97;100.00
20424;BME280;10371;49.042;8.002;2023-03-14T01:53:28;98104.06;;;10.95;100.00
20424;BME280;10371;49.042;8.002;2023-03-14T01:54:45;98100.00;;;10.92;100.00
20424;BME280;10371;49.042;8.002;2023-03-14T01:55:51;98097.84;;;10.96;100.00
20424;BME280;10371;49.042;8.002;2023-03-14T01:56:57;98094.25;;;10.97;100.00
20424;BME280;10371;49.042;8.002;2023-03-14T01:58:01;98100.63;;;10.94;100.00
20424;BME280;10371;49.042;8.002;2023-03-14T01:59:06;98103.41;;;10.93;100.00
20424;BME280;10371;49.042;8.002;2023-03-14T02:00:13;98103.75;;;10.90;100.00
20424;BME280;10371;49.042;8.002;2023-03-14T02:01:16;98105.31;;;10.99;100.00
20424;BME280;10371;49.042;8.002;2023-03-14T02:02:19;98096.06;;;10.96;100.00
20424;BME280;10371;49.042;8.002;2023-03-14T02:03:21;98088.09;;;10.98;100.00
20424;BME280;10371;49.042;8.002;2023-03-14T02:04:25;98095.06;;;10.98;100.00
20424;BME280;10371;49.042;8.002;2023-03-14T02:05:31;98095.91;;;10.98;100.00
20424;BME280;10371;49.042;8.002;2023-03-14T02:06:42;98096.53;;;11.00;100.00
20424;BME280;10371;49.042;8.002;2023-03-14T02:07:51;98099.13;;;11.00;100.00
20424;BME280;10371;49.042;8.002;2023-03-14T02:08:52;98100.13;;;10.99;100.00
20424;BME280;10371;49.042;8.002;2023-03-14T02:09:53;98096.25;;;10.95;100.00
20424;BME280;10371;49.042;8.002;2023-03-14T02:10:54;98087.78;;;10.93;100.00
20424;BME280;10371;49.042;8.002;2023-03-14T02:11:54;98088.75;;;10.92;100.00
20424;BME280;10371;49.042;8.002;2023-03-14T02:12:56;98086.78;;;10.94;100.00
20424;BME280;10371;49.042;8.002;2023-03-14T02:13:57;98082.38;;;10.94;100.00
20424;BME280;10371;49.042;8.002;2023-03-14T02:14:59;98085.81;;;10.95;100.00
20424;BME280;10371;49.042;8.002;2023-03-14T02:15:59;98076.22;;;10.95;100.00
20424;BME280;10371;49.042;8.002;2023-03-14T02:17:01;98074.91;;;10.91;100.00
20424;BME280;10371;49.042;8.002;2023-03-14T02:18:03;98080.13;;;10.91;100.00
20424;BME280;10371;49.042;8.002;2023-03-14T02:19:05;98081.75;;;10.92;100.00
20424;BME280;10371;49.042;8.002;2023-03-14T02:21:25;98061.09;;;10.91;100.00
20424;BME280;10371;49.042;8.002;2023-03-14T02:22:34;98064.69;;;10.90;100.00
20424;BME280;10371;49.042;8.002;2023-03-14T02:25:08;98064.84;;;10.88;100.00
20424;BME280;10371;49.042;8.002;2023-03-14T02:26:15;98066.50;;;10.89;100.00
20424;BME280;10371;49.042;8.002;2023-03-14T02:27:19;98052.81;;;10.87;100.00
20424;BME280;10371;49.042;8.002;2023-03-14T02:28:20;98053.78;;;10.86;100.00
20424;BME280;10371;49.042;8.002;2023-03-14T02:29:21;98043.09;;;10.81;100.00
20424;BME280;10371;49.042;8.002;2023-03-14T02:30:26;98058.03;;;10.87;100.00
20424;BME280;10371;49.042;8.002;2023-03-14T02:31:27;98052.97;;;10.86;100.00
20424;BME280;10371;49.042;8.002;2023-03-14T02:32:29;98052.63;;;10.89;100.00
20424;BME280;10371;49.042;8.002;2023-03-14T02:33:31;98055.44;;;10.87;100.00
20424;BME280;10371;49.042;8.002;2023-03-14T02:34:31;98051.38;;;10.85;100.00
20424;BME280;10371;49.042;8.002;2023-03-14T02:35:37;98049.75;;;10.84;100.00
20424;BME280;10371;49.042;8.002;2023-03-14T02:36:39;98053.16;;;10.84;100.00
20424;BME280;10371;49.042;8.002;2023-03-14T02:37:47;98050.03;;;10.89;100.00
20424;BME280;10371;49.042;8.002;2023-03-14T02:38:58;98053.31;;;10.83;100.00
20424;BME280;10371;49.042;8.002;2023-03-14T02:40:01;98059.19;;;10.85;100.00
20424;BME280;10371;49.042;8.002;2023-03-14T02:41:02;98058.19;;;10.86;100.00
20424;BME280;10371;49.042;8.002;2023-03-14T02:42:02;98049.56;;;10.85;100.00
20424;BME280;10371;49.042;8.002;2023-03-14T02:43:03;98040.31;;;10.83;100.00
20424;BME280;10371;49.042;8.002;2023-03-14T02:44:03;98044.38;;;10.85;100.00
20424;BME280;10371;49.042;8.002;2023-03-14T02:46:12;98044.22;;;10.87;100.00
20424;BME280;10371;49.042;8.002;2023-03-14T02:47:13;98040.78;;;10.86;100.00
20424;BME280;10371;49.042;8.002;2023-03-14T02:48:26;98038.66;;;10.90;100.00
20424;BME280;10371;49.042;8.002;2023-03-14T02:49:28;98045.81;;;10.88;100.00
20424;BME280;10371;49.042;8.002;2023-03-14T02:50:33;98042.41;;;10.87;100.00
20424;BME280;10371;49.042;8.002;2023-03-14T02:51:34;98044.81;;;10.89;100.00
20424;BME280;10371;49.042;8.002;2023-03-14T02:52:35;98047.09;;;10.92;100.00
20424;BME280;10371;49.042;8.002;2023-03-14T02:53:36;98044.63;;;10.99;100.00
20424;BME280;10371;49.042;8.002;2023-03-14T02:54:37;98052.28;;;10.92;100.00
20424;BME280;10371;49.042;8.002;2023-03-14T02:55:38;98055.09;;;10.90;100.00
20424;BME280;10371;49.042;8.002;2023-03-14T02:56:38;98042.53;;;10.94;100.00
20424;BME280;10371;49.042;8.002;2023-03-14T02:57:38;98046.28;;;10.91;100.00
20424;BME280;10371;49.042;8.002;2023-03-14T02:58:38;98040.56;;;10.96;100.00
20424;BME280;10371;49.042;8.002;2023-03-14T02:59:39;98040.91;;;10.93;100.00
20424;BME280;10371;49.042;8.002;2023-03-14T03:00:39;98041.94;;;10.84;100.00
20424;BME280;10371;49.042;8.002;2023-03-14T03:01:39;98033.16;;;10.85;100.00
20424;BME280;10371;49.042;8.002;2023-03-14T03:02:40;98034.75;;;10.86;100.00
20424;BME280;10371;49.042;8.002;2023-03-14T03:03:40;98028.59;;;10.87;100.00
20424;BME280;10371;49.042;8.002;2023-03-14T03:04:40;98024.53;;;10.84;100.00
20424;BME280;10371;49.042;8.002;2023-03-14T03:05:41;98016.56;;;10.78;100.00
20424;BME280;10371;49.042;8.002;2023-03-14T03:06:42;98007.75;;;10.87;100.00
20424;BME280;10371;49.042;8.002;2023-03-14T03:07:42;98008.41;;;10.81;100.00
20424;BME280;10371;49.042;8.002;2023-03-14T03:08:43;98010.72;;;10.84;100.00
20424;BME280;10371;49.042;8.002;2023-03-14T03:09:43;98014.13;;;10.84;100.00
20424;BME280;10371;49.042;8.002;2023-03-14T03:10:44;98012.31;;;10.85;100.00
20424;BME280;10371;49.042;8.002;2023-03-14T03:11:44;98002.56;;;10.87;100.00
20424;BME280;10371;49.042;8.002;2023-03-14T03:12:44;98001.25;;;10.83;100.00
20424;BME280;10371;49.042;8.002;2023-03-14T03:13:44;97990.16;;;10.89;100.00
20424;BME280;10371;49.042;8.002;2023-03-14T03:14:45;97998.81;;;10.89;100.00
20424;BME280;10371;49.042;8.002;2023-03-14T03:15:45;97995.25;;;10.82;100.00
20424;BME280;10371;49.042;8.002;2023-03-14T03:16:46;97994.44;;;10.82;100.00
20424;BME280;10371;49.042;8.002;2023-03-14T03:17:46;97990.50;;;10.86;100.00
20424;BME280;10371;49.042;8.002;2023-03-14T03:18:46;97990.50;;;10.86;100.00
20424;BME280;10371;49.042;8.002;2023-03-14T03:19:46;97974.44;;;10.82;100.00
20424;BME280;10371;49.042;8.002;2023-03-14T03:20:47;97987.63;;;10.72;100.00
20424;BME280;10371;49.042;8.002;2023-03-14T03:21:47;97978.53;;;10.77;100.00
20424;BME280;10371;49.042;8.002;2023-03-14T03:22:48;97973.66;;;10.73;100.00
20424;BME280;10371;49.042;8.002;2023-03-14T03:23:50;97973.66;;;10.73;100.00
20424;BME280;10371;49.042;8.002;2023-03-14T03:24:50;97961.19;;;10.61;100.00
20424;BME280;10371;49.042;8.002;2023-03-14T03:25:51;97966.53;;;10.67;100.00
20424;BME280;10371;49.042;8.002;2023-03-14T03:26:52;97963.09;;;10.67;100.00
20424;BME280;10371;49.042;8.002;2023-03-14T03:27:52;97960.31;;;10.77;100.00
20424;BME280;10371;49.042;8.002;2023-03-14T03:28:53;97961.41;;;10.82;100.00
20424;BME280;10371;49.042;8.002;2023-03-14T03:29:53;97952.19;;;10.71;100.00
20424;BME280;10371;49.042;8.002;2023-03-14T03:30:53;97948.31;;;10.67;100.00
20424;BME280;10371;49.042;8.002;2023-03-14T03:31:53;97949.97;;;10.60;100.00
20424;BME280;10371;49.042;8.002;2023-03-14T03:32:54;97942.00;;;10.62;100.00
20424;BME280;10371;49.042;8.002;2023-03-14T03:33:54;97945.41;;;10.62;100.00
20424;BME280;10371;49.042;8.002;2023-03-14T03:34:54;97957.66;;;10.54;100.00
20424;BME280;10371;49.042;8.002;2023-03-14T03:35:54;97948.91;;;10.46;100.00
20424;BME280;10371;49.042;8.002;2023-03-14T03:36:58;97950.16;;;10.59;100.00
20424;BME280;10371;49.042;8.002;2023-03-14T03:37:58;97948.22;;;10.52;100.00
20424;BME280;10371;49.042;8.002;2023-03-14T03:38:59;97951.81;;;10.51;100.00
20424;BME280;10371;49.042;8.002;2023-03-14T03:39:59;97954.88;;;10.55;100.00
20424;BME280;10371;49.042;8.002;2023-03-14T03:41:07;97952.91;;;10.57;100.00
20424;BME280;10371;49.042;8.002;2023-03-14T03:42:08;97955.06;;;10.54;100.00
20424;BME280;10371;49.042;8.002;2023-03-14T03:43:08;97949.66;;;10.55;100.00
20424;BME280;10371;49.042;8.002;2023-03-14T03:44:08;97953.91;;;10.56;100.00
20424;BME280;10371;49.042;8.002;2023-03-14T03:45:09;97955.69;;;10.56;100.00
20424;BME280;10371;49.042;8.002;2023-03-14T03:46:09;97945.63;;;10.52;100.00
20424;BME280;10371;49.042;8.002;2023-03-14T03:47:10;97949.84;;;10.54;100.00
20424;BME280;10371;49.042;8.002;2023-03-14T03:48:10;97955.88;;;10.54;100.00
20424;BME280;10371;49.042;8.002;2023-03-14T03:49:10;97956.69;;;10.46;100.00
20424;BME280;10371;49.042;8.002;2023-03-14T03:50:10;97962.41;;;10.42;100.00
20424;BME280;10371;49.042;8.002;2023-03-14T03:51:15;97964.97;;;10.50;100.00
20424;BME280;10371;49.042;8.002;2023-03-14T03:52:16;97950.84;;;10.44;100.00
20424;BME280;10371;49.042;8.002;2023-03-14T03:53:16;97942.56;;;10.49;100.00
20424;BME280;10371;49.042;8.002;2023-03-14T03:54:16;97935.41;;;10.51;100.00
20424;BME280;10371;49.042;8.002;2023-03-14T03:55:17;97932.16;;;10.49;100.00
20424;BME280;10371;49.042;8.002;2023-03-14T03:56:17;97927.75;;;10.49;100.00
20424;BME280;10371;49.042;8.002;2023-03-14T03:57:17;97929.38;;;10.50;100.00
20424;BME280;10371;49.042;8.002;2023-03-14T03:58:18;97932.78;;;10.51;100.00
20424;BME280;10371;49.042;8.002;2023-03-14T03:59:18;97924.34;;;10.49;100.00
20424;BME280;10371;49.042;8.002;2023-03-14T04:00:18;97919.78;;;10.51;100.00
20424;BME280;10371;49.042;8.002;2023-03-14T04:01:19;97925.94;;;10.50;100.00
20424;BME280;10371;49.042;8.002;2023-03-14T04:02:19;97929.22;;;10.44;100.00
20424;BME280;10371;49.042;8.002;2023-03-14T04:03:19;97927.94;;;10.48;100.00
20424;BME280;10371;49.042;8.002;2023-03-14T04:04:20;97924.34;;;10.49;100.00
20424;BME280;10371;49.042;8.002;2023-03-14T04:05:20;97937.81;;;10.52;100.00
20424;BME280;10371;49.042;8.002;2023-03-14T04:06:20;97933.13;;;10.48;100.00
20424;BME280;10371;49.042;8.002;2023-03-14T04:07:20;97928.88;;;10.47;100.00
20424;BME280;10371;49.042;8.002;2023-03-14T04:08:21;97926.59;;;10.52;100.00
20424;BME280;10371;49.042;8.002;2023-03-14T04:09:21;97925.16;;;10.49;100.00
20424;BME280;10371;49.042;8.002;2023-03-14T04:10:21;97915.88;;;10.47;100.00
20424;BME280;10371;49.042;8.002;2023-03-14T04:11:22;97906.59;;;10.52;100.00
20424;BME280;10371;49.042;8.002;2023-03-14T04:12:22;97916.53;;;10.49;100.00
20424;BME280;10371;49.042;8.002;2023-03-14T04:13:22;97918.50;;;10.47;100.00
20424;BME280;10371;49.042;8.002;2023-03-14T04:14:23;97912.47;;;10.46;100.00
20424;BME280;10371;49.042;8.002;2023-03-14T04:15:23;97920.78;;;10.42;100.00
20424;BME280;10371;49.042;8.002;2023-03-14T04:16:24;97911.69;;;10.46;100.00
20424;BME280;10371;49.042;8.002;2023-03-14T04:17:25;97913.63;;;10.44;100.00
20424;BME280;10371;49.042;8.002;2023-03-14T04:18:25;97916.88;;;10.46;100.00
20424;BME280;10371;49.042;8.002;2023-03-14T04:19:26;97909.06;;;10.46;100.00
20424;BME280;10371;49.042;8.002;2023-03-14T04:20:26;97905.81;;;10.44;100.00
20424;BME280;10371;49.042;8.002;2023-03-14T04:21:26;97898.66;;;10.46;100.00
20424;BME280;10371;49.042;8.002;2023-03-14T04:22:26;97898.16;;;10.50;100.00
20424;BME280;10371;49.042;8.002;2023-03-14T04:23:27;97900.44;;;10.54;100.00
20424;BME280;10371;49.042;8.002;2023-03-14T04:24:27;97900.25;;;10.55;100.00
20424;BME280;10371;49.042;8.002;2023-03-14T04:25:28;97887.56;;;10.52;100.00
20424;BME280;10371;49.042;8.002;2023-03-14T04:26:28;97882.22;;;10.54;100.00
20424;BME280;10371;49.042;8.002;2023-03-14T04:27:29;97885.78;;;10.52;100.00
20424;BME280;10371;49.042;8.002;2023-03-14T04:28:29;97880.31;;;10.47;100.00
20424;BME280;10371;49.042;8.002;2023-03-14T04:29:29;97879.00;;;10.43;100.00
20424;BME280;10371;49.042;8.002;2023-03-14T04:30:29;97881.94;;;10.40;100.00
20424;BME280;10371;49.042;8.002;2023-03-14T04:31:30;97882.06;;;10.47;100.00
20424;BME280;10371;49.042;8.002;2023-03-14T04:32:30;97884.16;;;10.51;100.00
20424;BME280;10371;49.042;8.002;2023-03-14T04:33:30;97883.66;;;10.56;100.00
20424;BME280;10371;49.042;8.002;2023-03-14T04:34:31;97880.56;;;10.52;100.00
20424;BME280;10371;49.042;8.002;2023-03-14T04:35:31;97884.50;;;10.48;100.00
20424;BME280;10371;49.042;8.002;2023-03-14T04:36:32;97882.22;;;10.54;100.00
20424;BME280;10371;49.042;8.002;2023-03-14T04:37:32;97883.38;;;10.51;100.00
20424;BME280;10371;49.042;8.002;2023-03-14T04:38:32;97879.13;;;10.50;100.00
20424;BME280;10371;49.042;8.002;2023-03-14T04:39:33;97878.97;;;10.51;100.00
20424;BME280;10371;49.042;8.002;2023-03-14T04:40:33;97877.69;;;10.47;100.00
20424;BME280;10371;49.042;8.002;2023-03-14T04:41:33;97888.91;;;10.48;100.00
20424;BME280;10371;49.042;8.002;2023-03-14T04:42:34;97884.66;;;10.47;100.00
20424;BME280;10371;49.042;8.002;2023-03-14T04:43:34;97880.13;;;10.49;100.00
20424;BME280;10371;49.042;8.002;2023-03-14T04:44:34;97885.66;;;10.46;100.00
20424;BME280;10371;49.042;8.002;2023-03-14T04:45:34;97880.63;;;10.44;100.00
20424;BME280;10371;49.042;8.002;2023-03-14T04:46:35;97888.25;;;10.46;100.00
20424;BME280;10371;49.042;8.002;2023-03-14T04:47:35;97881.56;;;10.51;100.00
20424;BME280;10371;49.042;8.002;2023-03-14T04:48:36;97879.47;;;10.47;100.00
20424;BME280;10371;49.042;8.002;2023-03-14T04:49:37;97884.06;;;10.45;100.00
20424;BME280;10371;49.042;8.002;2023-03-14T04:50:38;97882.06;;;10.47;100.00
20424;BME280;10371;49.042;8.002;2023-03-14T04:51:38;97884.31;;;10.50;100.00
20424;BME280;10371;49.042;8.002;2023-03-14T04:52:38;97876.72;;;10.48;100.00
20424;BME280;10371;49.042;8.002;2023-03-14T04:53:39;97881.41;;;10.53;100.00
20424;BME280;10371;49.042;8.002;2023-03-14T04:54:39;97869.72;;;10.49;100.00
20424;BME280;10371;49.042;8.002;2023-03-14T04:55:39;97875.25;;;10.46;100.00
20424;BME280;10371;49.042;8.002;2023-03-14T04:56:39;97872.78;;;10.52;100.00
20424;BME280;10371;49.042;8.002;2023-03-14T04:57:40;97866.75;;;10.52;100.00
20424;BME280;10371;49.042;8.002;2023-03-14T04:58:40;97867.75;;;10.51;100.00
20424;BME280;10371;49.042;8.002;2023-03-14T04:59:40;97860.59;;;10.53;100.00
20424;BME280;10371;49.042;8.002;2023-03-14T05:00:41;97865.47;;;10.56;100.00
20424;BME280;10371;49.042;8.002;2023-03-14T05:01:41;97863.81;;;10.55;100.00
20424;BME280;10371;49.042;8.002;2023-03-14T05:02:41;97866.41;;;10.55;100.00
20424;BME280;10371;49.042;8.002;2023-03-14T05:03:41;97853.75;;;10.52;100.00
20424;BME280;10371;49.042;8.002;2023-03-14T05:04:42;97857.81;;;10.55;100.00
20424;BME280;10371;49.042;8.002;2023-03-14T05:05:42;97862.38;;;10.52;100.00
20424;BME280;10371;49.042;8.002;2023-03-14T05:06:42;97857.81;;;10.55;100.00
20424;BME280;10371;49.042;8.002;2023-03-14T05:07:43;97857.34;;;10.51;100.00
20424;BME280;10371;49.042;8.002;2023-03-14T05:08:43;97855.41;;;10.53;100.00
20424;BME280;10371;49.042;8.002;2023-03-14T05:09:44;97865.81;;;10.53;100.00
20424;BME280;10371;49.042;8.002;2023-03-14T05:10:51;97862.56;;;10.51;100.00
20424;BME280;10371;49.042;8.002;2023-03-14T05:11:52;97851.50;;;10.49;100.00
20424;BME280;10371;49.042;8.002;2023-03-14T05:12:52;97849.91;;;10.48;100.00
20424;BME280;10371;49.042;8.002;2023-03-14T05:13:52;97859.31;;;10.49;100.00
20424;BME280;10371;49.042;8.002;2023-03-14T05:14:52;97851.19;;;10.44;100.00
20424;BME280;10371;49.042;8.002;2023-03-14T05:15:53;97841.13;;;10.41;100.00
20424;BME280;10371;49.042;8.002;2023-03-14T05:16:55;97847.16;;;10.41;100.00
20424;BME280;10371;49.042;8.002;2023-03-14T05:17:55;97846.22;;;10.34;100.00
20424;BME280;10371;49.042;8.002;2023-03-14T05:18:55;97841.03;;;10.34;100.00
20424;BME280;10371;49.042;8.002;2023-03-14T05:19:56;97833.38;;;10.33;100.00
20424;BME280;10371;49.042;8.002;2023-03-14T05:20:56;97841.84;;;10.26;100.00
20424;BME280;10371;49.042;8.002;2023-03-14T05:21:56;97842.00;;;10.25;100.00
20424;BME280;10371;49.042;8.002;2023-03-14T05:22:57;97835.41;;;10.14;100.00
20424;BME280;10371;49.042;8.002;2023-03-14T05:23:57;97842.09;;;10.09;100.00
20424;BME280;10371;49.042;8.002;2023-03-14T05:24:57;97836.69;;;10.18;100.00
20424;BME280;10371;49.042;8.002;2023-03-14T05:25:59;97837.00;;;10.23;100.00